Glenfield, New York
Current Conditions -  °F | °C
As of 8:58 AM on Saturday 20 Dec 2014 (Local Time) from KGTB Reporting Station
Clear Clear  
Wind Chill: 12°   Ceiling: Unl
Heat Index: 12°   Visibility: 10mi
Dew Point:   Wind: 0mph
Humidity: 84%   Direction: NA
Pressure: 30.29"   Gusts: NA
Location:  43.71°N, 75.4°W
Report Text: KGTB 201358Z AUTO 00000KT 10SM CLR M11/M13 A3029 RMK AO2 SLP272 T11101132
Loading
Personal Weather Stations






























Interactive Weather Map New forecast layout! Learn more

10-Day Weather Forecast

Advertisements
Track Severe Weather on mobile